Time;durP1;ratioP1;P1;durP2;ratioP2;P2;SDS_P1;SDS_P2;PMS_P1;PMS_P2;Temp;Humidity;BMP_temperature;BMP_pressure;BME280_temperature;BME280_humidity;BME280_pressure;Samples;Min_cycle;Max_cycle;Signal;HPM_P1;HPM_P2
2023/12/13 00:01:26;;;;;;;8.60;1.70;;;;;;;11.16;85.73;99386.53;5050696;28;20441;-82
2023/12/13 00:03:53;;;;;;;4.77;1.57;;;;;;;11.17;86.07;99395.31;5051314;28;20025;-81
2023/12/13 00:06:19;;;;;;;5.72;1.75;;;;;;;11.15;86.28;99400.63;5050306;28;20033;-86
2023/12/13 00:08:44;;;;;;;5.65;1.50;;;;;;;11.10;86.54;99399.84;5049956;28;20037;-85
2023/12/13 00:11:10;;;;;;;8.80;1.87;;;;;;;11.10;86.68;99381.41;5050863;28;20078;-82
2023/12/13 00:13:35;;;;;;;10.30;2.07;;;;;;;11.07;86.61;99368.28;5050619;28;20110;-82
2023/12/13 00:16:01;;;;;;;8.65;1.40;;;;;;;11.08;86.32;99359.50;5050546;28;20025;-81
2023/12/13 00:18:27;;;;;;;6.60;1.70;;;;;;;11.05;86.89;99360.41;5050326;28;20048;-83
2023/12/13 00:20:53;;;;;;;6.07;1.40;;;;;;;11.06;86.89;99356.03;5050368;28;20029;-82
2023/12/13 00:23:18;;;;;;;8.20;1.53;;;;;;;11.07;86.53;99360.38;5050735;28;20021;-81
2023/12/13 00:25:44;;;;;;;5.40;1.30;;;;;;;11.06;86.65;99354.25;5049832;28;20048;-81
2023/12/13 00:28:09;;;;;;;5.93;1.40;;;;;;;11.08;86.46;99348.94;5050558;28;20036;-82
2023/12/13 00:30:34;;;;;;;6.77;1.67;;;;;;;11.09;86.24;99350.69;5050258;28;20021;-82
2023/12/13 00:33:00;;;;;;;7.73;1.50;;;;;;;11.10;86.50;99347.16;5050190;28;20104;-85
2023/12/13 00:35:25;;;;;;;7.53;1.50;;;;;;;11.09;86.58;99350.69;5049942;28;20104;-81
2023/12/13 00:37:50;;;;;;;6.32;1.70;;;;;;;11.08;86.79;99354.22;5050360;28;20493;-82
2023/12/13 00:40:18;;;;;;;6.40;1.60;;;;;;;11.09;86.63;99347.16;5049837;28;20112;-81
2023/12/13 00:42:44;;;;;;;7.10;1.33;;;;;;;11.07;86.76;99349.84;5050269;28;20048;-82
2023/12/13 00:45:10;;;;;;;6.70;1.73;;;;;;;11.09;86.41;99350.69;5050039;28;20481;-81
2023/12/13 00:47:35;;;;;;;6.60;1.65;;;;;;;11.09;86.32;99342.78;5049951;28;20021;-81
2023/12/13 00:50:01;;;;;;;6.53;1.60;;;;;;;11.08;86.75;99348.94;5050337;28;20060;-83
2023/12/13 00:52:26;;;;;;;7.43;1.53;;;;;;;11.06;86.54;99345.50;5050320;28;20129;-84
2023/12/13 00:54:52;;;;;;;7.63;2.35;;;;;;;11.06;86.59;99341.06;5049810;28;20025;-84
2023/12/13 00:57:17;;;;;;;9.87;1.70;;;;;;;11.05;86.54;99339.34;5049819;28;20158;-81
2023/12/13 00:59:43;;;;;;;6.57;1.60;;;;;;;11.05;86.42;99330.56;5049565;28;20032;-84
2023/12/13 01:02:08;;;;;;;6.90;1.60;;;;;;;11.04;86.69;99327.06;5049545;28;20337;-83
2023/12/13 01:04:36;;;;;;;7.03;1.80;;;;;;;11.08;86.28;99321.72;5050047;28;20043;-82
2023/12/13 01:07:01;;;;;;;7.85;1.67;;;;;;;11.10;86.34;99325.22;5048416;28;20543;-82
2023/12/13 01:09:27;;;;;;;8.03;1.70;;;;;;;11.11;86.13;99312.00;5049649;28;20025;-85
2023/12/13 01:11:52;;;;;;;7.23;1.50;;;;;;;11.10;86.38;99299.72;5049560;28;20393;-84
2023/12/13 01:14:18;;;;;;;4.90;1.30;;;;;;;11.10;86.15;99309.41;5049516;28;20036;-82
2023/12/13 01:16:44;;;;;;;5.27;1.20;;;;;;;11.10;85.98;99299.72;5049665;28;20291;-81
2023/12/13 01:19:10;;;;;;;4.85;1.30;;;;;;;11.10;86.31;99294.47;5048956;28;20171;-81
2023/12/13 01:21:35;;;;;;;5.40;1.20;;;;;;;11.09;86.35;99303.25;5049685;28;20281;-86
2023/12/13 01:24:01;;;;;;;9.53;1.10;;;;;;;11.09;86.16;99311.16;5049550;28;20052;-82
2023/12/13 01:26:26;;;;;;;7.47;0.90;;;;;;;11.09;85.97;99316.44;5049274;28;20382;-82
2023/12/13 01:28:51;;;;;;;6.60;0.90;;;;;;;11.12;86.17;99324.28;5049399;28;20392;-82
2023/12/13 01:31:17;;;;;;;5.40;1.13;;;;;;;11.14;85.74;99329.53;5049592;28;20063;-84
2023/12/13 01:33:42;;;;;;;4.70;1.02;;;;;;;11.11;86.00;99332.22;5049333;28;20029;-81
2023/12/13 01:36:08;;;;;;;3.57;0.83;;;;;;;11.10;86.03;99333.97;5047842;28;20029;-82
2023/12/13 01:38:35;;;;;;;6.28;1.63;;;;;;;11.14;86.13;99329.53;5049103;28;20405;-82
2023/12/13 01:41:01;;;;;;;8.03;1.60;;;;;;;11.14;86.12;99325.09;5049322;28;20052;-81
2023/12/13 01:43:26;;;;;;;5.25;0.90;;;;;;;11.12;85.97;99329.53;5049226;28;20029;-85
2023/12/13 01:45:54;;;;;;;7.53;0.90;;;;;;;11.10;86.05;99330.50;5049395;28;20070;-83
2023/12/13 01:48:22;;;;;;;7.13;0.73;;;;;;;11.09;86.14;99321.69;5049857;28;20021;-81
2023/12/13 01:50:48;;;;;;;5.38;0.88;;;;;;;11.08;85.83;99327.00;5049722;28;20412;-81
2023/12/13 01:53:16;;;;;;;6.10;0.77;;;;;;;11.06;85.96;99320.00;5049773;28;20112;-81
2023/12/13 01:55:41;;;;;;;3.67;0.60;;;;;;;11.07;85.96;99318.25;5049420;28;20086;-85
2023/12/13 01:58:08;;;;;;;6.60;0.87;;;;;;;11.07;85.97;99305.06;5048794;28;20121;-81
2023/12/13 02:00:34;;;;;;;4.65;0.70;;;;;;;11.06;86.19;99313.88;5048866;28;20033;-82
2023/12/13 02:03:00;;;;;;;3.97;0.63;;;;;;;11.02;86.00;99315.69;5049232;28;20552;-85
2023/12/13 02:05:28;;;;;;;4.40;0.70;;;;;;;11.03;85.85;99312.16;5049323;28;20104;-82
2023/12/13 02:07:53;;;;;;;6.10;0.82;;;;;;;11.04;86.00;99326.22;5049385;28;20051;-81
2023/12/13 02:10:18;;;;;;;6.83;0.80;;;;;;;11.03;86.12;99312.16;5049387;28;20544;-83
2023/12/13 02:12:45;;;;;;;6.30;0.80;;;;;;;11.04;86.13;99308.63;5049174;28;20029;-81
2023/12/13 02:15:11;;;;;;;5.55;0.80;;;;;;;11.04;86.15;99310.41;5049266;28;20024;-85
2023/12/13 02:17:36;;;;;;;6.05;0.70;;;;;;;11.02;86.29;99309.56;5049008;28;20190;-83
2023/12/13 02:20:02;;;;;;;5.73;0.80;;;;;;;11.02;86.01;99328.00;5048909;28;20115;-83
2023/12/13 02:22:28;;;;;;;8.27;0.70;;;;;;;11.01;85.96;99321.00;5048813;28;20021;-83
2023/12/13 02:24:56;;;;;;;7.33;0.70;;;;;;;11.01;86.16;99316.59;5048398;28;20033;-83
2023/12/13 02:27:25;;;;;;;7.03;0.70;;;;;;;11.02;85.99;99309.56;5048940;28;20116;-82
2023/12/13 02:29:51;;;;;;;7.68;0.90;;;;;;;11.02;86.02;99320.97;5048691;28;20029;-83
2023/12/13 02:32:16;;;;;;;6.53;0.80;;;;;;;11.01;86.39;99315.75;5052629;28;20575;-83
2023/12/13 02:34:42;;;;;;;6.93;0.70;;;;;;;10.99;86.57;99312.28;5052390;28;20025;-85
2023/12/13 02:37:07;;;;;;;4.30;0.70;;;;;;;10.95;86.66;99305.31;5052262;28;20382;-81
2023/12/13 02:39:32;;;;;;;8.47;0.90;;;;;;;10.96;86.26;99304.41;5052181;28;20340;-83
2023/12/13 02:41:58;;;;;;;4.37;0.70;;;;;;;10.94;86.60;99303.56;5052241;28;20032;-83
2023/12/13 02:44:24;;;;;;;6.47;0.60;;;;;;;10.93;86.54;99307.13;5052047;28;20048;-84
2023/12/13 02:46:49;;;;;;;5.03;0.60;;;;;;;10.91;86.65;99309.81;5051132;28;20032;-82
2023/12/13 02:49:15;;;;;;;6.27;0.77;;;;;;;10.90;86.44;99298.38;5052345;28;20451;-82
2023/12/13 02:51:40;;;;;;;7.80;1.00;;;;;;;10.90;86.21;99295.75;5052239;28;20107;-86
2023/12/13 02:54:05;;;;;;;7.25;0.82;;;;;;;10.90;85.83;99303.66;5052011;28;20032;-83
2023/12/13 02:56:31;;;;;;;8.23;0.90;;;;;;;10.90;85.68;99297.53;5052127;28;20120;-87
2023/12/13 02:58:56;;;;;;;8.30;0.97;;;;;;;10.89;86.21;99287.91;5051603;28;20029;-82
2023/12/13 03:01:21;;;;;;;5.97;0.70;;;;;;;10.89;85.63;99282.63;5051635;28;20141;-82
2023/12/13 03:03:47;;;;;;;6.13;0.80;;;;;;;10.88;85.70;99289.66;5052211;28;20107;-82
2023/12/13 03:06:12;;;;;;;7.93;0.80;;;;;;;10.86;85.40;99295.88;5051812;28;20271;-86
2023/12/13 03:08:38;;;;;;;7.97;0.60;;;;;;;10.86;85.28;99296.72;5051887;28;20374;-84
2023/12/13 03:11:03;;;;;;;5.97;0.53;;;;;;;10.85;85.29;99289.72;5051952;28;20028;-82
2023/12/13 03:13:29;;;;;;;7.15;0.70;;;;;;;10.84;84.93;99285.34;5051575;28;20025;-82
2023/12/13 03:15:54;;;;;;;5.33;0.50;;;;;;;10.84;84.57;99284.47;5051757;28;20481;-82
2023/12/13 03:18:19;;;;;;;7.70;0.80;;;;;;;10.83;85.02;99280.09;5051728;28;20131;-82
2023/12/13 03:20:45;;;;;;;7.27;1.23;;;;;;;10.82;84.82;99276.63;5051475;28;20039;-83
2023/12/13 03:23:10;;;;;;;6.87;0.80;;;;;;;10.82;84.66;99278.38;5050014;28;20051;-82
2023/12/13 03:25:36;;;;;;;4.15;0.68;;;;;;;10.79;84.41;99276.69;5050472;28;20045;-84
2023/12/13 03:28:02;;;;;;;6.40;0.73;;;;;;;10.78;84.45;99272.31;5051582;28;20037;-84
2023/12/13 03:30:27;;;;;;;5.85;0.68;;;;;;;10.78;84.17;99272.31;5051743;28;20119;-86
2023/12/13 03:32:53;;;;;;;5.23;0.50;;;;;;;10.76;83.64;99268.84;5051395;28;20132;-82
2023/12/13 03:35:18;;;;;;;3.47;0.50;;;;;;;10.75;83.49;99256.59;5051396;28;20021;-82
2023/12/13 03:37:44;;;;;;;6.13;1.03;;;;;;;10.73;83.35;99258.34;5051171;28;20029;-82
2023/12/13 03:40:10;;;;;;;5.80;0.52;;;;;;;10.72;82.89;99262.78;5050680;28;20064;-83
2023/12/13 03:42:35;;;;;;;5.30;0.50;;;;;;;10.72;83.05;99272.41;5050854;28;20033;-85
2023/12/13 03:45:01;;;;;;;4.00;0.50;;;;;;;10.69;83.18;99264.59;5051174;28;20377;-83
2023/12/13 03:47:26;;;;;;;4.30;0.40;;;;;;;10.69;82.31;99256.69;5053193;28;20025;-85
2023/12/13 03:49:52;;;;;;;4.43;0.30;;;;;;;10.66;82.32;99246.22;5051157;28;20074;-86
2023/12/13 03:52:17;;;;;;;7.93;0.60;;;;;;;10.63;80.78;99245.41;5050809;28;20032;-84
2023/12/13 03:54:42;;;;;;;3.10;0.40;;;;;;;10.62;80.53;99246.28;5051060;28;20065;-80
2023/12/13 03:57:08;;;;;;;6.30;0.57;;;;;;;10.63;79.86;99252.44;5050772;28;20032;-85
2023/12/13 03:59:34;;;;;;;4.63;0.52;;;;;;;10.61;79.49;99248.97;5050319;28;20029;-83
2023/12/13 04:01:59;;;;;;;5.37;0.50;;;;;;;10.58;80.03;99249.91;5050822;28;20206;-81
2023/12/13 04:04:25;;;;;;;4.47;0.50;;;;;;;10.55;80.51;99255.22;5050822;28;20029;-83
2023/12/13 04:06:50;;;;;;;5.50;0.40;;;;;;;10.55;80.33;99249.97;5051456;28;20044;-84
2023/12/13 04:09:15;;;;;;;8.38;0.50;;;;;;;10.55;79.95;99249.09;5050700;28;20032;-81
2023/12/13 04:11:41;;;;;;;3.93;0.50;;;;;;;10.55;79.82;99260.50;5050483;28;20040;-80
2023/12/13 04:14:06;;;;;;;3.20;0.40;;;;;;;10.55;79.98;99265.75;5050447;28;20584;-84
2023/12/13 04:16:32;;;;;;;5.23;0.50;;;;;;;10.54;80.18;99253.50;5050737;28;20199;-84
2023/12/13 04:18:58;;;;;;;4.35;0.50;;;;;;;10.55;80.56;99260.50;5050213;28;20024;-81
2023/12/13 04:21:23;;;;;;;5.80;0.40;;;;;;;10.52;80.37;99255.28;5048814;28;20116;-82
2023/12/13 04:23:48;;;;;;;3.13;0.50;;;;;;;10.51;80.41;99234.25;5049437;28;20444;-81
2023/12/13 04:26:14;;;;;;;7.03;0.60;;;;;;;10.49;80.56;99231.66;5050081;28;20284;-82
2023/12/13 04:28:40;;;;;;;4.90;1.07;;;;;;;10.51;80.46;99237.78;5050153;28;20025;-83
2023/12/13 04:31:06;;;;;;;3.60;0.40;;;;;;;10.50;80.70;99230.78;5050470;28;20652;-82
2023/12/13 04:33:33;;;;;;;5.50;1.10;;;;;;;10.49;80.68;99239.56;5050299;28;20157;-83
2023/12/13 04:35:59;;;;;;;6.18;0.50;;;;;;;10.44;80.30;99237.03;5050042;28;20199;-83
2023/12/13 04:38:25;;;;;;;3.15;0.30;;;;;;;10.44;80.25;99229.13;5050133;28;20025;-85
2023/12/13 04:40:50;;;;;;;5.60;0.50;;;;;;;10.42;80.34;99227.41;5050253;28;20017;-81
2023/12/13 04:43:15;;;;;;;6.70;0.50;;;;;;;10.40;80.24;99222.19;5049831;28;20025;-86
2023/12/13 04:45:41;;;;;;;3.77;0.30;;;;;;;10.40;80.73;99221.28;5049751;28;20089;-82
2023/12/13 04:48:09;;;;;;;4.57;0.40;;;;;;;10.36;80.38;99227.50;5049770;28;20032;-86
2023/12/13 04:50:35;;;;;;;5.07;0.45;;;;;;;10.34;80.69;99236.31;5049995;28;20028;-83
2023/12/13 04:53:02;;;;;;;5.20;0.87;;;;;;;10.32;80.37;99222.31;5049393;28;20024;-82
2023/12/13 04:55:27;;;;;;;5.05;0.43;;;;;;;10.30;80.98;99224.09;5049874;28;20036;-82
2023/12/13 04:57:52;;;;;;;5.80;0.70;;;;;;;10.30;80.65;99218.84;5049795;28;20052;-82
2023/12/13 05:00:18;;;;;;;5.90;0.70;;;;;;;10.28;80.98;99222.38;5049721;28;20031;-84
2023/12/13 05:02:45;;;;;;;4.40;0.60;;;;;;;10.26;80.82;99217.19;5049816;28;20032;-85
2023/12/13 05:05:10;;;;;;;4.40;0.40;;;;;;;10.28;80.63;99220.63;5050048;28;20512;-83
2023/12/13 05:07:35;;;;;;;5.77;0.40;;;;;;;10.27;81.02;99218.91;5049641;28;20025;-83
2023/12/13 05:10:02;;;;;;;6.32;0.50;;;;;;;10.28;81.03;99231.16;5049748;28;20024;-83
2023/12/13 05:12:28;;;;;;;5.53;0.50;;;;;;;10.28;81.18;99236.44;5050142;28;20024;-83
2023/12/13 05:14:53;;;;;;;5.85;0.70;;;;;;;10.28;80.99;99228.53;5049442;28;20389;-83
2023/12/13 05:17:18;;;;;;;6.77;0.70;;;;;;;10.27;80.80;99236.44;5049846;28;20112;-82
2023/12/13 05:19:44;;;;;;;6.27;0.80;;;;;;;10.26;81.00;99232.06;5049733;28;20036;-83
2023/12/13 05:22:09;;;;;;;9.07;0.70;;;;;;;10.25;81.08;99223.34;5049440;28;20110;-82
2023/12/13 05:24:35;;;;;;;7.77;0.70;;;;;;;10.21;80.95;99234.78;5048617;28;20028;-82
2023/12/13 05:27:01;;;;;;;6.75;0.60;;;;;;;10.20;81.01;99222.53;5048002;28;20045;-82
2023/12/13 05:29:26;;;;;;;6.93;0.60;;;;;;;10.20;81.19;99227.78;5049301;28;20047;-86
2023/12/13 05:31:51;;;;;;;5.37;0.50;;;;;;;10.22;81.06;99219.88;5049456;28;20487;-83
2023/12/13 05:34:17;;;;;;;4.70;0.60;;;;;;;10.22;81.55;99219.88;5049553;28;20346;-82
2023/12/13 05:36:42;;;;;;;8.23;0.87;;;;;;;10.22;81.45;99226.00;5049470;28;20113;-86
2023/12/13 05:39:08;;;;;;;10.00;0.60;;;;;;;10.22;81.38;99223.38;5049148;28;20033;-82
2023/12/13 05:41:33;;;;;;;10.03;0.70;;;;;;;10.23;81.07;99226.88;5048163;28;20268;-86
2023/12/13 05:43:59;;;;;;;13.03;0.80;;;;;;;10.24;81.13;99229.47;5049275;28;20541;-82
2023/12/13 05:46:24;;;;;;;11.73;1.10;;;;;;;10.24;81.17;99231.25;5049874;28;20033;-82
2023/12/13 05:48:49;;;;;;;9.00;0.80;;;;;;;10.24;81.20;99236.50;5048194;28;20116;-82
2023/12/13 05:51:15;;;;;;;9.30;0.90;;;;;;;10.24;81.43;99242.63;5049755;28;20036;-84
2023/12/13 05:53:40;;;;;;;10.97;1.33;;;;;;;10.23;81.33;99250.56;5049890;28;20374;-83
2023/12/13 05:56:06;;;;;;;14.10;1.10;;;;;;;10.23;81.61;99259.31;5049143;28;20040;-83
2023/12/13 05:58:31;;;;;;;12.98;1.30;;;;;;;10.24;81.63;99253.16;5049001;28;20036;-83
2023/12/13 06:00:57;;;;;;;6.97;0.73;;;;;;;10.24;81.17;99249.66;5049328;28;20060;-82
2023/12/13 06:03:27;;;;;;;10.85;1.20;;;;;;;10.26;81.47;99254.00;5049353;28;20108;-83
2023/12/13 06:05:54;;;;;;;15.43;1.40;;;;;;;10.25;81.70;99256.66;5053150;28;20516;-82
2023/12/13 06:08:19;;;;;;;14.45;1.00;;;;;;;10.24;81.27;99253.16;5054045;28;20473;-84
2023/12/13 06:10:45;;;;;;;12.83;1.53;;;;;;;10.23;81.55;99248.78;5054493;28;20178;-85
2023/12/13 06:13:16;;;;;;;10.93;1.10;;;;;;;10.22;81.67;99257.56;5054034;28;20028;-84
2023/12/13 06:15:42;;;;;;;16.17;0.90;;;;;;;10.22;81.54;99257.56;5052033;28;20143;-82
2023/12/13 06:18:07;;;;;;;9.32;0.88;;;;;;;10.21;81.22;99255.84;5052912;28;20100;-83
2023/12/13 06:20:33;;;;;;;19.60;1.60;;;;;;;10.20;81.66;99262.88;5052682;28;20088;-82
2023/12/13 06:22:58;;;;;;;18.97;1.40;;;;;;;10.21;81.16;99263.72;5052786;28;20497;-82
2023/12/13 06:25:24;;;;;;;13.50;1.80;;;;;;;10.19;81.41;99252.38;5051386;28;20057;-84
2023/12/13 06:27:50;;;;;;;18.25;1.55;;;;;;;10.17;81.16;99256.78;5052640;28;20062;-82
2023/12/13 06:30:15;;;;;;;13.53;1.33;;;;;;;10.16;81.61;99265.59;5052599;28;20104;-83
2023/12/13 06:32:41;;;;;;;10.17;1.10;;;;;;;10.17;81.36;99259.44;5052660;28;20025;-81
2023/12/13 06:35:06;;;;;;;10.40;1.60;;;;;;;10.18;81.67;99261.16;5052472;28;20317;-82
2023/12/13 06:37:32;;;;;;;13.73;1.30;;;;;;;10.19;81.01;99249.75;5052366;28;20021;-85
2023/12/13 06:39:57;;;;;;;13.80;1.80;;;;;;;10.17;81.25;99248.91;5051785;28;20029;-83
2023/12/13 06:42:22;;;;;;;13.63;1.50;;;;;;;10.21;81.22;99247.94;5052404;28;20027;-85
2023/12/13 06:44:48;;;;;;;10.57;1.43;;;;;;;10.25;80.94;99252.28;5052135;28;20224;-82
2023/12/13 06:47:13;;;;;;;15.47;1.47;;;;;;;10.25;81.46;99246.13;5052247;28;20029;-81
2023/12/13 06:49:39;;;;;;;17.53;1.50;;;;;;;10.25;81.33;99257.53;5052218;28;20033;-83
2023/12/13 06:52:04;;;;;;;18.73;1.60;;;;;;;10.25;81.14;99254.91;5051968;28;20060;-84
2023/12/13 06:54:29;;;;;;;13.17;1.30;;;;;;;10.22;81.33;99257.56;5050480;28;20840;-81
2023/12/13 06:56:56;;;;;;;14.83;1.10;;;;;;;10.23;80.99;99242.66;5051605;28;20481;-81
2023/12/13 06:59:21;;;;;;;14.43;1.30;;;;;;;10.21;80.83;99255.84;5051902;28;20396;-78
2023/12/13 07:01:47;;;;;;;13.27;1.10;;;;;;;10.24;80.86;99255.78;5052027;28;20036;-85
2023/12/13 07:04:13;;;;;;;11.97;1.30;;;;;;;10.24;81.07;99268.94;5051354;28;20041;-80
2023/12/13 07:06:38;;;;;;;13.43;1.50;;;;;;;10.27;81.15;99260.13;5051283;28;20448;-80
2023/12/13 07:09:04;;;;;;;14.37;1.90;;;;;;;10.27;81.38;99268.91;5051689;28;20037;-80
2023/12/13 07:11:29;;;;;;;11.70;1.57;;;;;;;10.27;80.85;99274.16;5054585;28;20044;-80
2023/12/13 07:13:55;;;;;;;15.52;2.08;;;;;;;10.26;81.09;99264.53;5053434;28;20029;-82
2023/12/13 07:16:20;;;;;;;13.60;1.70;;;;;;;10.26;81.13;99254.00;5051292;28;20560;-84
2023/12/13 07:18:45;;;;;;;10.80;1.73;;;;;;;10.26;80.70;99259.28;5051709;28;20064;-89
2023/12/13 07:21:11;;;;;;;12.65;1.20;;;;;;;10.27;80.79;99261.00;5051344;28;20082;-83
2023/12/13 07:23:36;;;;;;;16.13;1.60;;;;;;;10.27;80.49;99260.13;5052332;28;20051;-93
2023/12/13 07:26:05;;;;;;;11.83;1.00;;;;;;;10.29;80.48;99253.94;5052370;28;20413;-80
2023/12/13 07:28:31;;;;;;;12.80;1.70;;;;;;;10.30;80.52;99250.41;5051679;28;20068;-83
2023/12/13 07:30:56;;;;;;;10.52;1.25;;;;;;;10.32;80.18;99248.63;5053849;28;20429;-93
2023/12/13 07:33:22;;;;;;;15.70;1.47;;;;;;;10.33;79.93;99245.09;5054179;28;20032;-89
2023/12/13 07:35:47;;;;;;;10.87;1.30;;;;;;;10.36;79.93;99245.94;5049253;28;20025;-83
2023/12/13 07:38:15;;;;;;;12.10;1.20;;;;;;;10.37;79.40;99250.28;5033014;28;20055;-87
2023/12/13 07:40:44;;;;;;;11.68;0.90;;;;;;;10.38;79.74;99247.66;5032257;28;20081;-93
2023/12/13 07:43:10;;;;;;;14.95;1.13;;;;;;;10.41;79.85;99258.13;5048782;28;20171;-82
2023/12/13 07:45:35;;;;;;;13.82;0.98;;;;;;;10.41;79.69;99257.25;5051091;28;20119;-85
2023/12/13 07:48:00;;;;;;;14.23;1.77;;;;;;;10.41;79.53;99258.13;5051304;28;20086;-81
2023/12/13 07:50:26;;;;;;;13.20;1.57;;;;;;;10.42;79.21;99270.41;5051269;28;20040;-88
2023/12/13 07:52:51;;;;;;;10.87;1.27;;;;;;;10.42;78.97;99269.50;5050992;28;20063;-81
2023/12/13 07:55:19;;;;;;;13.90;1.50;;;;;;;10.44;79.30;99267.72;5051494;28;20029;-81
2023/12/13 07:57:45;;;;;;;11.27;1.13;;;;;;;10.45;78.89;99274.72;5051005;28;20067;-81
2023/12/13 08:00:12;;;;;;;12.37;1.83;;;;;;;10.44;78.76;99272.97;5051970;28;20428;-82
2023/12/13 08:02:37;;;;;;;13.50;1.38;;;;;;;10.44;78.61;99278.25;5052302;28;20029;-81
2023/12/13 08:05:03;;;;;;;9.53;1.17;;;;;;;10.44;78.78;99280.88;5051865;28;20466;-81
2023/12/13 08:07:29;;;;;;;12.38;1.10;;;;;;;10.44;78.92;99270.34;5052606;28;20028;-88
2023/12/13 08:09:59;;;;;;;14.43;1.40;;;;;;;10.44;78.75;99283.50;5052174;28;20375;-82
2023/12/13 08:12:25;;;;;;;11.48;1.30;;;;;;;10.44;78.50;99283.50;5052399;28;20440;-88
2023/12/13 08:14:50;;;;;;;8.20;0.95;;;;;;;10.41;78.19;99284.47;5052237;28;20037;-86
2023/12/13 08:17:15;;;;;;;9.80;1.57;;;;;;;10.40;78.71;99290.63;5051341;28;20461;-81
2023/12/13 08:19:41;;;;;;;9.90;1.10;;;;;;;10.40;78.34;99292.34;5050861;28;20058;-85
2023/12/13 08:22:07;;;;;;;12.23;1.50;;;;;;;10.41;78.49;99287.09;5052263;28;20064;-81
2023/12/13 08:24:33;;;;;;;11.00;1.03;;;;;;;10.42;78.47;99293.19;5050660;28;20033;-87
2023/12/13 08:26:58;;;;;;;11.63;1.27;;;;;;;10.38;77.16;99302.03;5050661;28;20073;-81
2023/12/13 08:29:23;;;;;;;12.77;1.23;;;;;;;10.40;77.23;99298.50;5049565;28;20085;-82
2023/12/13 08:31:49;;;;;;;13.10;1.30;;;;;;;10.40;77.05;99297.59;5050223;28;20441;-81
2023/12/13 08:34:15;;;;;;;11.33;0.83;;;;;;;10.39;76.78;99293.22;5050404;28;20045;-83
2023/12/13 08:36:40;;;;;;;7.32;0.85;;;;;;;10.40;77.10;99302.88;5050372;28;20025;-82
2023/12/13 08:39:06;;;;;;;7.47;1.13;;;;;;;10.41;77.19;99304.63;5050353;28;20040;-81
2023/12/13 08:41:32;;;;;;;9.57;1.30;;;;;;;10.42;77.58;99301.09;5050235;28;20017;-85
2023/12/13 08:43:57;;;;;;;8.23;1.20;;;;;;;10.42;77.10;99303.72;5050052;28;20268;-81
2023/12/13 08:46:22;;;;;;;11.13;1.07;;;;;;;10.44;76.97;99304.56;5050457;28;20048;-83
2023/12/13 08:48:48;;;;;;;8.38;1.05;;;;;;;10.50;77.01;99307.09;5050387;28;20104;-89
2023/12/13 08:51:13;;;;;;;8.63;1.03;;;;;;;10.55;76.59;99294.72;5050579;28;20021;-86
2023/12/13 08:53:39;;;;;;;7.20;0.83;;;;;;;10.62;76.47;99298.09;5050355;28;20542;-81
2023/12/13 08:56:05;;;;;;;6.97;0.65;;;;;;;10.69;76.57;99291.81;5048855;28;20591;-81
2023/12/13 08:58:30;;;;;;;10.90;1.00;;;;;;;10.75;76.09;99283.78;5049775;28;20259;-82
2023/12/13 09:00:56;;;;;;;6.27;0.93;;;;;;;10.77;75.83;99291.66;5049754;28;20644;-87
2023/12/13 09:03:21;;;;;;;9.03;0.97;;;;;;;10.78;75.27;99290.75;5049998;28;20090;-85
2023/12/13 09:05:47;;;;;;;4.47;0.50;;;;;;;10.80;74.69;99301.25;5049836;28;20033;-84
2023/12/13 09:08:13;;;;;;;9.07;0.60;;;;;;;10.79;73.88;99291.59;5050052;28;20025;-82
2023/12/13 09:10:38;;;;;;;11.18;0.82;;;;;;;10.75;73.85;99286.41;5049650;28;20104;-86
2023/12/13 09:13:04;;;;;;;8.60;0.70;;;;;;;10.71;73.79;99287.38;5053705;28;20033;-81
2023/12/13 09:15:31;;;;;;;4.68;0.52;;;;;;;10.70;73.91;99290.91;5053622;28;20029;-82
2023/12/13 09:17:57;;;;;;;8.38;0.82;;;;;;;10.70;73.66;99295.28;5049889;28;20064;-89
2023/12/13 09:20:23;;;;;;;5.43;0.70;;;;;;;10.69;73.57;99304.09;5049636;28;20033;-89
2023/12/13 09:22:48;;;;;;;5.77;0.60;;;;;;;10.71;73.14;99302.28;5050301;28;20405;-88
2023/12/13 09:25:16;;;;;;;7.17;0.53;;;;;;;10.69;73.12;99309.34;5047857;28;20120;-82
2023/12/13 09:27:43;;;;;;;8.82;0.60;;;;;;;10.66;72.70;99304.16;5049543;28;20209;-87
2023/12/13 09:30:14;;;;;;;3.53;0.60;;;;;;;10.68;72.93;99307.63;5049636;28;20021;-82
2023/12/13 09:32:40;;;;;;;5.88;0.70;;;;;;;10.65;72.88;99320.84;5049412;28;20025;-81
2023/12/13 09:35:05;;;;;;;6.07;0.67;;;;;;;10.64;73.19;99330.53;5049667;28;20032;-88
2023/12/13 09:37:32;;;;;;;6.85;0.77;;;;;;;10.67;72.67;99329.59;5049887;28;20029;-88
2023/12/13 09:39:59;;;;;;;18.17;1.10;;;;;;;10.61;73.38;99334.06;5051571;28;20405;-81
2023/12/13 09:42:25;;;;;;;5.05;0.60;;;;;;;10.61;73.42;99333.22;5054237;28;20032;-81
2023/12/13 09:44:52;;;;;;;5.30;0.50;;;;;;;10.60;73.02;99337.59;5053614;28;20484;-83
2023/12/13 09:47:23;;;;;;;3.40;0.40;;;;;;;10.63;73.44;99341.97;5053455;28;20279;-82
2023/12/13 09:49:50;;;;;;;6.93;0.85;;;;;;;10.65;73.15;99345.44;5053505;28;20033;-84
2023/12/13 09:52:20;;;;;;;7.70;0.73;;;;;;;10.65;73.79;99349.81;5053648;28;20028;-83
2023/12/13 09:54:47;;;;;;;5.32;0.55;;;;;;;10.67;73.75;99346.25;5053381;28;20033;-82
2023/12/13 09:57:13;;;;;;;3.42;0.70;;;;;;;10.68;73.60;99350.63;5053397;28;20048;-82
2023/12/13 09:59:38;;;;;;;4.23;0.63;;;;;;;10.71;73.17;99344.41;5053087;28;20466;-88
2023/12/13 10:02:13;;;;;;;4.93;0.70;;;;;;;10.70;72.75;99353.22;5053240;28;20286;-82
2023/12/13 10:04:38;;;;;;;7.55;0.68;;;;;;;10.74;72.23;99344.38;5053207;28;20638;-81
2023/12/13 10:07:07;;;;;;;5.20;0.50;;;;;;;10.81;72.48;99339.84;5053224;28;20267;-80
2023/12/13 10:09:33;;;;;;;6.40;0.43;;;;;;;10.86;71.40;99349.38;5053865;28;20337;-90
2023/12/13 10:12:01;;;;;;;5.03;0.60;;;;;;;10.90;71.63;99340.53;5053147;28;20020;-82
2023/12/13 10:14:27;;;;;;;7.10;0.52;;;;;;;10.91;71.44;99337.00;5053042;28;20032;-85
2023/12/13 10:16:53;;;;;;;4.47;0.52;;;;;;;10.91;71.84;99342.25;5053003;28;20025;-82
2023/12/13 10:19:19;;;;;;;5.03;1.00;;;;;;;10.91;71.76;99341.41;5053540;28;20103;-82
2023/12/13 10:21:47;;;;;;;4.80;0.50;;;;;;;10.88;71.38;99336.22;5057937;28;20481;-83
2023/12/13 10:24:12;;;;;;;9.20;0.68;;;;;;;10.87;71.41;99353.75;5053457;28;20481;-86
2023/12/13 10:26:39;;;;;;;5.93;0.57;;;;;;;10.84;71.30;99340.66;5052876;28;20044;-82
2023/12/13 10:29:04;;;;;;;5.40;0.90;;;;;;;10.83;71.38;99333.66;5052792;28;20063;-81
2023/12/13 10:31:33;;;;;;;4.83;0.67;;;;;;;10.81;72.23;99342.47;5051714;28;20069;-81
2023/12/13 10:33:58;;;;;;;5.72;0.60;;;;;;;10.80;72.44;99348.63;5052912;28;20021;-87
2023/12/13 10:36:27;;;;;;;7.33;0.50;;;;;;;10.80;72.34;99339.00;5052853;28;20025;-84
2023/12/13 10:38:54;;;;;;;7.18;0.55;;;;;;;10.82;72.74;99337.19;5052516;28;20490;-84
2023/12/13 10:41:30;;;;;;;6.57;0.70;;;;;;;10.87;72.03;99345.84;5052505;28;20482;-81
2023/12/13 10:43:57;;;;;;;5.65;0.45;;;;;;;10.93;72.16;99344.00;5052518;28;20481;-81
2023/12/13 10:46:26;;;;;;;3.97;0.50;;;;;;;10.90;72.37;99351.06;5052513;28;20040;-83
2023/12/13 10:48:52;;;;;;;3.92;0.60;;;;;;;10.88;72.52;99354.66;5052510;28;20036;-81
2023/12/13 10:51:18;;;;;;;6.03;0.63;;;;;;;10.81;73.00;99343.34;5051552;28;20033;-89
2023/12/13 10:53:45;;;;;;;4.22;0.50;;;;;;;10.78;73.27;99346.06;5052286;28;20032;-89
2023/12/13 10:56:12;;;;;;;5.28;0.57;;;;;;;10.74;73.93;99339.97;5052277;28;20025;-81
2023/12/13 10:58:38;;;;;;;5.50;0.90;;;;;;;10.69;73.98;99326.03;5052085;28;20025;-90
2023/12/13 11:01:05;;;;;;;4.78;0.55;;;;;;;10.65;73.94;99334.91;5052181;28;20139;-82
2023/12/13 11:03:49;;;;;;;6.15;0.47;;;;;;;10.62;73.98;99330.53;5051851;28;20094;-81
2023/12/13 11:06:16;;;;;;;6.85;0.50;;;;;;;10.68;74.11;99328.69;5051661;28;20029;-81
2023/12/13 11:08:43;;;;;;;5.72;0.52;;;;;;;10.74;73.97;99328.59;5051821;28;20098;-82
2023/12/13 11:11:14;;;;;;;6.50;0.70;;;;;;;10.78;74.13;99317.09;5052123;28;20033;-81
2023/12/13 11:13:55;;;;;;;5.30;1.23;;;;;;;10.82;74.43;99325.78;5051648;28;20127;-80
2023/12/13 11:16:25;;;;;;;8.88;2.47;;;;;;;10.83;73.62;99307.31;5052228;28;20060;-83
2023/12/13 11:18:52;;;;;;;8.07;2.03;;;;;;;10.81;73.42;99309.13;5051613;28;20102;-87
2023/12/13 11:21:26;;;;;;;3.88;0.60;;;;;;;10.78;73.68;99306.56;5051318;28;20040;-83
2023/12/13 11:23:56;;;;;;;5.90;0.77;;;;;;;10.80;73.53;99311.78;5050704;28;20029;-84
2023/12/13 11:26:23;;;;;;;4.97;0.65;;;;;;;10.81;73.80;99308.22;5053315;28;20045;-82